sensor_id;sensor_type;location;lat;lon;timestamp;P1;durP1;ratioP1;P2;durP2;ratioP2
14181;SDS011;7171;50.936;6.764;2022-10-16T05:04:06;0.82;;;0.80;;
14181;SDS011;7171;50.936;6.764;2022-10-16T05:06:33;0.60;;;0.60;;
14181;SDS011;7171;50.936;6.764;2022-10-16T05:09:00;0.63;;;0.63;;
14181;SDS011;7171;50.936;6.764;2022-10-16T05:11:26;0.70;;;0.70;;
14181;SDS011;7171;50.936;6.764;2022-10-16T05:13:53;0.65;;;0.65;;
14181;SDS011;7171;50.936;6.764;2022-10-16T05:16:20;0.70;;;0.70;;
14181;SDS011;7171;50.936;6.764;2022-10-16T05:18:46;3.50;;;0.70;;
14181;SDS011;7171;50.936;6.764;2022-10-16T05:21:14;0.68;;;0.68;;
14181;SDS011;7171;50.936;6.764;2022-10-16T05:23:41;4.45;;;1.00;;
14181;SDS011;7171;50.936;6.764;2022-10-16T05:26:08;0.60;;;0.60;;
14181;SDS011;7171;50.936;6.764;2022-10-16T05:28:35;0.68;;;0.68;;
14181;SDS011;7171;50.936;6.764;2022-10-16T05:31:03;2.33;;;0.80;;
14181;SDS011;7171;50.936;6.764;2022-10-16T05:33:30;0.70;;;0.70;;
14181;SDS011;7171;50.936;6.764;2022-10-16T05:36:00;0.75;;;0.75;;
14181;SDS011;7171;50.936;6.764;2022-10-16T05:38:29;0.70;;;0.70;;
14181;SDS011;7171;50.936;6.764;2022-10-16T05:40:55;1.42;;;0.70;;
14181;SDS011;7171;50.936;6.764;2022-10-16T05:43:23;0.60;;;0.60;;
14181;SDS011;7171;50.936;6.764;2022-10-16T05:45:53;0.55;;;0.55;;
14181;SDS011;7171;50.936;6.764;2022-10-16T05:48:21;0.70;;;0.70;;
14181;SDS011;7171;50.936;6.764;2022-10-16T05:50:48;1.02;;;0.63;;
14181;SDS011;7171;50.936;6.764;2022-10-16T05:53:15;1.60;;;0.65;;
14181;SDS011;7171;50.936;6.764;2022-10-16T05:55:43;0.70;;;0.70;;
14181;SDS011;7171;50.936;6.764;2022-10-16T05:58:17;0.70;;;0.70;;
14181;SDS011;7171;50.936;6.764;2022-10-16T06:00:43;0.60;;;0.60;;
14181;SDS011;7171;50.936;6.764;2022-10-16T06:03:10;0.68;;;0.63;;
14181;SDS011;7171;50.936;6.764;2022-10-16T06:05:37;0.60;;;0.60;;
14181;SDS011;7171;50.936;6.764;2022-10-16T06:08:03;0.70;;;0.70;;
14181;SDS011;7171;50.936;6.764;2022-10-16T06:10:30;0.60;;;0.60;;
14181;SDS011;7171;50.936;6.764;2022-10-16T06:12:58;0.85;;;0.70;;
14181;SDS011;7171;50.936;6.764;2022-10-16T06:15:25;0.75;;;0.70;;
14181;SDS011;7171;50.936;6.764;2022-10-16T06:17:52;0.75;;;0.73;;
14181;SDS011;7171;50.936;6.764;2022-10-16T06:20:18;0.88;;;0.88;;
14181;SDS011;7171;50.936;6.764;2022-10-16T06:22:45;1.63;;;0.77;;
14181;SDS011;7171;50.936;6.764;2022-10-16T06:25:12;0.57;;;0.57;;
14181;SDS011;7171;50.936;6.764;2022-10-16T06:27:39;0.90;;;0.80;;
14181;SDS011;7171;50.936;6.764;2022-10-16T06:30:08;0.57;;;0.57;;
14181;SDS011;7171;50.936;6.764;2022-10-16T06:32:35;0.60;;;0.60;;
14181;SDS011;7171;50.936;6.764;2022-10-16T06:35:02;0.80;;;0.80;;
14181;SDS011;7171;50.936;6.764;2022-10-16T06:37:29;0.70;;;0.70;;
14181;SDS011;7171;50.936;6.764;2022-10-16T06:39:55;0.60;;;0.60;;
14181;SDS011;7171;50.936;6.764;2022-10-16T06:42:22;0.85;;;0.85;;
14181;SDS011;7171;50.936;6.764;2022-10-16T06:44:49;0.70;;;0.70;;
14181;SDS011;7171;50.936;6.764;2022-10-16T06:47:17;0.68;;;0.68;;
14181;SDS011;7171;50.936;6.764;2022-10-16T06:49:43;0.80;;;0.80;;
14181;SDS011;7171;50.936;6.764;2022-10-16T06:52:10;0.80;;;0.80;;
14181;SDS011;7171;50.936;6.764;2022-10-16T06:54:37;0.80;;;0.80;;
14181;SDS011;7171;50.936;6.764;2022-10-16T06:57:03;0.85;;;0.85;;
14181;SDS011;7171;50.936;6.764;2022-10-16T06:59:30;1.00;;;0.82;;
14181;SDS011;7171;50.936;6.764;2022-10-16T07:01:57;0.80;;;0.80;;
14181;SDS011;7171;50.936;6.764;2022-10-16T07:04:25;0.60;;;0.60;;
14181;SDS011;7171;50.936;6.764;2022-10-16T07:06:52;1.13;;;0.90;;
14181;SDS011;7171;50.936;6.764;2022-10-16T07:09:18;0.70;;;0.70;;
14181;SDS011;7171;50.936;6.764;2022-10-16T07:11:45;1.08;;;0.98;;
14181;SDS011;7171;50.936;6.764;2022-10-16T07:14:12;0.70;;;0.70;;
14181;SDS011;7171;50.936;6.764;2022-10-16T07:16:42;0.73;;;0.73;;
14181;SDS011;7171;50.936;6.764;2022-10-16T07:19:09;1.15;;;0.98;;
14181;SDS011;7171;50.936;6.764;2022-10-16T07:21:38;0.80;;;0.80;;
14181;SDS011;7171;50.936;6.764;2022-10-16T07:24:06;1.10;;;1.00;;
14181;SDS011;7171;50.936;6.764;2022-10-16T07:26:36;0.95;;;0.85;;
14181;SDS011;7171;50.936;6.764;2022-10-16T07:29:04;1.88;;;0.90;;
14181;SDS011;7171;50.936;6.764;2022-10-16T07:31:31;1.75;;;0.70;;
14181;SDS011;7171;50.936;6.764;2022-10-16T07:33:58;0.70;;;0.70;;
14181;SDS011;7171;50.936;6.764;2022-10-16T07:36:26;1.00;;;0.75;;
14181;SDS011;7171;50.936;6.764;2022-10-16T07:38:54;0.80;;;0.80;;
14181;SDS011;7171;50.936;6.764;2022-10-16T07:41:21;0.70;;;0.70;;
14181;SDS011;7171;50.936;6.764;2022-10-16T07:43:48;0.70;;;0.70;;
14181;SDS011;7171;50.936;6.764;2022-10-16T07:46:16;0.65;;;0.65;;
14181;SDS011;7171;50.936;6.764;2022-10-16T07:48:44;0.50;;;0.50;;
14181;SDS011;7171;50.936;6.764;2022-10-16T07:51:13;1.73;;;0.77;;
14181;SDS011;7171;50.936;6.764;2022-10-16T07:53:41;0.60;;;0.60;;
14181;SDS011;7171;50.936;6.764;2022-10-16T07:56:09;0.70;;;0.70;;
14181;SDS011;7171;50.936;6.764;2022-10-16T07:58:36;0.60;;;0.60;;
14181;SDS011;7171;50.936;6.764;2022-10-16T08:01:04;0.85;;;0.85;;
14181;SDS011;7171;50.936;6.764;2022-10-16T08:03:32;0.75;;;0.75;;
14181;SDS011;7171;50.936;6.764;2022-10-16T08:05:59;0.70;;;0.70;;
14181;SDS011;7171;50.936;6.764;2022-10-16T08:08:26;0.70;;;0.70;;
14181;SDS011;7171;50.936;6.764;2022-10-16T08:10:53;0.75;;;0.75;;
14181;SDS011;7171;50.936;6.764;2022-10-16T08:13:21;0.80;;;0.80;;
14181;SDS011;7171;50.936;6.764;2022-10-16T08:15:48;0.80;;;0.80;;
14181;SDS011;7171;50.936;6.764;2022-10-16T08:18:15;1.25;;;0.90;;
14181;SDS011;7171;50.936;6.764;2022-10-16T08:20:42;0.63;;;0.63;;
14181;SDS011;7171;50.936;6.764;2022-10-16T08:23:09;1.10;;;0.70;;
14181;SDS011;7171;50.936;6.764;2022-10-16T08:25:38;0.70;;;0.70;;
14181;SDS011;7171;50.936;6.764;2022-10-16T08:28:05;2.00;;;0.70;;
14181;SDS011;7171;50.936;6.764;2022-10-16T08:30:35;0.73;;;0.73;;
14181;SDS011;7171;50.936;6.764;2022-10-16T08:33:02;0.80;;;0.80;;
14181;SDS011;7171;50.936;6.764;2022-10-16T08:35:29;0.68;;;0.68;;
14181;SDS011;7171;50.936;6.764;2022-10-16T08:37:55;0.85;;;0.85;;
14181;SDS011;7171;50.936;6.764;2022-10-16T08:40:23;0.70;;;0.70;;
14181;SDS011;7171;50.936;6.764;2022-10-16T08:42:58;0.60;;;0.60;;
14181;SDS011;7171;50.936;6.764;2022-10-16T08:45:40;0.77;;;0.77;;
14181;SDS011;7171;50.936;6.764;2022-10-16T08:48:16;1.02;;;0.93;;
14181;SDS011;7171;50.936;6.764;2022-10-16T08:50:48;0.95;;;0.70;;
14181;SDS011;7171;50.936;6.764;2022-10-16T08:53:18;0.60;;;0.60;;
14181;SDS011;7171;50.936;6.764;2022-10-16T08:55:49;0.77;;;0.70;;
14181;SDS011;7171;50.936;6.764;2022-10-16T08:58:17;1.27;;;0.63;;
14181;SDS011;7171;50.936;6.764;2022-10-16T09:00:47;0.60;;;0.60;;
14181;SDS011;7171;50.936;6.764;2022-10-16T09:03:17;0.70;;;0.70;;
14181;SDS011;7171;50.936;6.764;2022-10-16T09:06:06;0.70;;;0.70;;
14181;SDS011;7171;50.936;6.764;2022-10-16T09:08:45;0.75;;;0.70;;
14181;SDS011;7171;50.936;6.764;2022-10-16T09:11:20;1.70;;;0.60;;
14181;SDS011;7171;50.936;6.764;2022-10-16T09:13:54;0.70;;;0.70;;
14181;SDS011;7171;50.936;6.764;2022-10-16T09:16:30;0.60;;;0.60;;
14181;SDS011;7171;50.936;6.764;2022-10-16T09:19:01;1.17;;;0.68;;
14181;SDS011;7171;50.936;6.764;2022-10-16T09:21:39;0.68;;;0.68;;
14181;SDS011;7171;50.936;6.764;2022-10-16T09:24:10;0.40;;;0.40;;
14181;SDS011;7171;50.936;6.764;2022-10-16T09:26:40;0.60;;;0.60;;
14181;SDS011;7171;50.936;6.764;2022-10-16T09:29:08;0.50;;;0.50;;
14181;SDS011;7171;50.936;6.764;2022-10-16T09:31:38;0.77;;;0.70;;
14181;SDS011;7171;50.936;6.764;2022-10-16T09:34:05;0.50;;;0.50;;
14181;SDS011;7171;50.936;6.764;2022-10-16T09:36:43;0.35;;;0.35;;
14181;SDS011;7171;50.936;6.764;2022-10-16T09:39:12;0.60;;;0.60;;
14181;SDS011;7171;50.936;6.764;2022-10-16T09:41:39;0.50;;;0.50;;
14181;SDS011;7171;50.936;6.764;2022-10-16T09:44:14;0.47;;;0.47;;
14181;SDS011;7171;50.936;6.764;2022-10-16T09:46:46;0.43;;;0.43;;
14181;SDS011;7171;50.936;6.764;2022-10-16T09:49:20;0.55;;;0.52;;
14181;SDS011;7171;50.936;6.764;2022-10-16T09:51:48;0.52;;;0.52;;
14181;SDS011;7171;50.936;6.764;2022-10-16T09:54:16;0.85;;;0.73;;
14181;SDS011;7171;50.936;6.764;2022-10-16T09:56:43;0.40;;;0.40;;
14181;SDS011;7171;50.936;6.764;2022-10-16T09:59:15;1.45;;;0.60;;
14181;SDS011;7171;50.936;6.764;2022-10-16T10:01:44;1.20;;;0.60;;
14181;SDS011;7171;50.936;6.764;2022-10-16T10:04:14;0.45;;;0.45;;
14181;SDS011;7171;50.936;6.764;2022-10-16T10:06:42;1.27;;;0.70;;
14181;SDS011;7171;50.936;6.764;2022-10-16T10:09:16;0.30;;;0.30;;
14181;SDS011;7171;50.936;6.764;2022-10-16T10:11:47;0.73;;;0.45;;
14181;SDS011;7171;50.936;6.764;2022-10-16T10:14:23;0.20;;;0.20;;
14181;SDS011;7171;50.936;6.764;2022-10-16T10:17:06;0.63;;;0.55;;
14181;SDS011;7171;50.936;6.764;2022-10-16T10:19:40;0.63;;;0.63;;
14181;SDS011;7171;50.936;6.764;2022-10-16T10:22:15;0.50;;;0.50;;
14181;SDS011;7171;50.936;6.764;2022-10-16T10:28:01;0.38;;;0.38;;
14181;SDS011;7171;50.936;6.764;2022-10-16T10:30:37;0.22;;;0.22;;
14181;SDS011;7171;50.936;6.764;2022-10-16T10:33:12;0.40;;;0.40;;
14181;SDS011;7171;50.936;6.764;2022-10-16T10:35:49;0.77;;;0.60;;
14181;SDS011;7171;50.936;6.764;2022-10-16T10:38:29;0.50;;;0.50;;
14181;SDS011;7171;50.936;6.764;2022-10-16T10:41:10;0.50;;;0.50;;
14181;SDS011;7171;50.936;6.764;2022-10-16T10:43:49;0.70;;;0.47;;
14181;SDS011;7171;50.936;6.764;2022-10-16T10:46:29;0.45;;;0.45;;
14181;SDS011;7171;50.936;6.764;2022-10-16T10:49:08;0.30;;;0.30;;
14181;SDS011;7171;50.936;6.764;2022-10-16T10:51:48;0.40;;;0.40;;
14181;SDS011;7171;50.936;6.764;2022-10-16T10:54:25;0.40;;;0.40;;
14181;SDS011;7171;50.936;6.764;2022-10-16T10:57:00;0.85;;;0.50;;
14181;SDS011;7171;50.936;6.764;2022-10-16T10:59:39;0.93;;;0.60;;
14181;SDS011;7171;50.936;6.764;2022-10-16T11:02:26;0.57;;;0.57;;
14181;SDS011;7171;50.936;6.764;2022-10-16T11:05:08;0.77;;;0.77;;
14181;SDS011;7171;50.936;6.764;2022-10-16T11:07:49;0.28;;;0.28;;
14181;SDS011;7171;50.936;6.764;2022-10-16T11:10:20;0.30;;;0.30;;
14181;SDS011;7171;50.936;6.764;2022-10-16T11:12:50;0.45;;;0.45;;
14181;SDS011;7171;50.936;6.764;2022-10-16T11:15:22;0.60;;;0.60;;
14181;SDS011;7171;50.936;6.764;2022-10-16T11:17:53;1.00;;;0.70;;
14181;SDS011;7171;50.936;6.764;2022-10-16T11:20:26;0.57;;;0.57;;
14181;SDS011;7171;50.936;6.764;2022-10-16T11:22:58;0.60;;;0.60;;
14181;SDS011;7171;50.936;6.764;2022-10-16T11:25:29;0.65;;;0.65;;
14181;SDS011;7171;50.936;6.764;2022-10-16T11:27:57;1.30;;;0.60;;
14181;SDS011;7171;50.936;6.764;2022-10-16T11:30:28;0.30;;;0.30;;
14181;SDS011;7171;50.936;6.764;2022-10-16T11:33:04;0.30;;;0.30;;
14181;SDS011;7171;50.936;6.764;2022-10-16T11:35:51;0.50;;;0.50;;
14181;SDS011;7171;50.936;6.764;2022-10-16T11:38:24;0.30;;;0.30;;
14181;SDS011;7171;50.936;6.764;2022-10-16T11:40:56;0.77;;;0.77;;
14181;SDS011;7171;50.936;6.764;2022-10-16T11:43:29;0.70;;;0.70;;
14181;SDS011;7171;50.936;6.764;2022-10-16T11:46:02;0.50;;;0.43;;
14181;SDS011;7171;50.936;6.764;2022-10-16T11:48:35;0.38;;;0.38;;
14181;SDS011;7171;50.936;6.764;2022-10-16T11:51:11;0.40;;;0.32;;
14181;SDS011;7171;50.936;6.764;2022-10-16T11:53:45;0.55;;;0.55;;
14181;SDS011;7171;50.936;6.764;2022-10-16T11:56:15;0.63;;;0.63;;
14181;SDS011;7171;50.936;6.764;2022-10-16T11:58:48;0.52;;;0.52;;
14181;SDS011;7171;50.936;6.764;2022-10-16T12:01:22;1.10;;;0.60;;
14181;SDS011;7171;50.936;6.764;2022-10-16T12:03:58;0.52;;;0.52;;
14181;SDS011;7171;50.936;6.764;2022-10-16T12:06:39;0.50;;;0.50;;
14181;SDS011;7171;50.936;6.764;2022-10-16T12:09:09;0.57;;;0.57;;
14181;SDS011;7171;50.936;6.764;2022-10-16T12:11:41;0.45;;;0.45;;
14181;SDS011;7171;50.936;6.764;2022-10-16T12:14:19;0.47;;;0.47;;
14181;SDS011;7171;50.936;6.764;2022-10-16T12:17:01;0.28;;;0.28;;
14181;SDS011;7171;50.936;6.764;2022-10-16T12:19:30;0.40;;;0.40;;
14181;SDS011;7171;50.936;6.764;2022-10-16T12:22:00;0.47;;;0.47;;
14181;SDS011;7171;50.936;6.764;2022-10-16T12:24:31;0.50;;;0.50;;
14181;SDS011;7171;50.936;6.764;2022-10-16T12:27:00;1.35;;;0.50;;
14181;SDS011;7171;50.936;6.764;2022-10-16T12:29:35;0.40;;;0.30;;
14181;SDS011;7171;50.936;6.764;2022-10-16T12:32:04;0.55;;;0.55;;
14181;SDS011;7171;50.936;6.764;2022-10-16T12:34:45;0.40;;;0.40;;
14181;SDS011;7171;50.936;6.764;2022-10-16T12:37:18;0.73;;;0.68;;
14181;SDS011;7171;50.936;6.764;2022-10-16T12:39:47;0.47;;;0.47;;
14181;SDS011;7171;50.936;6.764;2022-10-16T12:42:22;0.43;;;0.43;;
14181;SDS011;7171;50.936;6.764;2022-10-16T12:44:56;0.47;;;0.47;;
14181;SDS011;7171;50.936;6.764;2022-10-16T12:47:24;0.50;;;0.50;;
14181;SDS011;7171;50.936;6.764;2022-10-16T12:50:03;0.40;;;0.40;;
14181;SDS011;7171;50.936;6.764;2022-10-16T12:52:50;0.40;;;0.40;;
14181;SDS011;7171;50.936;6.764;2022-10-16T12:55:17;0.90;;;0.30;;
14181;SDS011;7171;50.936;6.764;2022-10-16T12:57:48;0.30;;;0.30;;
14181;SDS011;7171;50.936;6.764;2022-10-16T13:00:33;0.47;;;0.47;;
14181;SDS011;7171;50.936;6.764;2022-10-16T13:03:26;0.73;;;0.40;;
14181;SDS011;7171;50.936;6.764;2022-10-16T13:06:09;0.50;;;0.50;;
14181;SDS011;7171;50.936;6.764;2022-10-16T13:08:52;0.40;;;0.40;;
14181;SDS011;7171;50.936;6.764;2022-10-16T13:11:42;0.32;;;0.32;;
14181;SDS011;7171;50.936;6.764;2022-10-16T13:14:26;0.47;;;0.47;;
14181;SDS011;7171;50.936;6.764;2022-10-16T13:17:20;0.47;;;0.45;;
14181;SDS011;7171;50.936;6.764;2022-10-16T13:19:54;0.50;;;0.50;;
14181;SDS011;7171;50.936;6.764;2022-10-16T13:22:29;1.75;;;0.63;;
14181;SDS011;7171;50.936;6.764;2022-10-16T13:25:05;0.40;;;0.40;;
14181;SDS011;7171;50.936;6.764;2022-10-16T13:27:44;0.60;;;0.60;;
14181;SDS011;7171;50.936;6.764;2022-10-16T13:30:18;1.45;;;0.60;;
14181;SDS011;7171;50.936;6.764;2022-10-16T13:32:46;0.70;;;0.50;;
14181;SDS011;7171;50.936;6.764;2022-10-16T13:35:18;0.77;;;0.60;;
14181;SDS011;7171;50.936;6.764;2022-10-16T13:37:47;0.50;;;0.50;;
14181;SDS011;7171;50.936;6.764;2022-10-16T13:40:19;0.60;;;0.60;;
14181;SDS011;7171;50.936;6.764;2022-10-16T13:42:47;0.80;;;0.60;;
14181;SDS011;7171;50.936;6.764;2022-10-16T13:45:18;0.40;;;0.40;;
14181;SDS011;7171;50.936;6.764;2022-10-16T13:47:45;1.13;;;0.60;;
14181;SDS011;7171;50.936;6.764;2022-10-16T13:50:13;0.45;;;0.45;;
14181;SDS011;7171;50.936;6.764;2022-10-16T13:52:41;0.60;;;0.60;;
14181;SDS011;7171;50.936;6.764;2022-10-16T13:55:10;0.60;;;0.43;;
14181;SDS011;7171;50.936;6.764;2022-10-16T13:57:39;0.45;;;0.45;;
14181;SDS011;7171;50.936;6.764;2022-10-16T14:00:19;0.40;;;0.40;;
14181;SDS011;7171;50.936;6.764;2022-10-16T14:02:52;0.30;;;0.30;;
14181;SDS011;7171;50.936;6.764;2022-10-16T14:05:23;0.55;;;0.50;;
14181;SDS011;7171;50.936;6.764;2022-10-16T14:07:50;0.68;;;0.60;;
14181;SDS011;7171;50.936;6.764;2022-10-16T14:10:19;1.30;;;0.60;;
14181;SDS011;7171;50.936;6.764;2022-10-16T14:12:55;0.32;;;0.32;;
14181;SDS011;7171;50.936;6.764;2022-10-16T14:15:23;0.38;;;0.38;;
14181;SDS011;7171;50.936;6.764;2022-10-16T14:17:50;0.80;;;0.57;;
14181;SDS011;7171;50.936;6.764;2022-10-16T14:20:18;0.70;;;0.70;;
14181;SDS011;7171;50.936;6.764;2022-10-16T14:22:57;0.60;;;0.50;;
14181;SDS011;7171;50.936;6.764;2022-10-16T14:25:27;0.40;;;0.40;;
14181;SDS011;7171;50.936;6.764;2022-10-16T14:28:00;0.52;;;0.52;;
14181;SDS011;7171;50.936;6.764;2022-10-16T14:30:29;0.40;;;0.40;;
14181;SDS011;7171;50.936;6.764;2022-10-16T14:32:58;0.40;;;0.40;;
14181;SDS011;7171;50.936;6.764;2022-10-16T14:35:27;0.50;;;0.50;;
14181;SDS011;7171;50.936;6.764;2022-10-16T14:37:56;0.50;;;0.50;;
14181;SDS011;7171;50.936;6.764;2022-10-16T14:40:24;0.50;;;0.50;;
14181;SDS011;7171;50.936;6.764;2022-10-16T14:42:52;0.60;;;0.60;;
14181;SDS011;7171;50.936;6.764;2022-10-16T14:45:22;0.30;;;0.30;;
14181;SDS011;7171;50.936;6.764;2022-10-16T14:47:52;0.50;;;0.50;;
14181;SDS011;7171;50.936;6.764;2022-10-16T14:50:21;1.85;;;0.60;;
14181;SDS011;7171;50.936;6.764;2022-10-16T14:52:47;0.40;;;0.40;;
14181;SDS011;7171;50.936;6.764;2022-10-16T14:55:14;0.95;;;0.70;;
14181;SDS011;7171;50.936;6.764;2022-10-16T14:57:42;0.40;;;0.40;;
14181;SDS011;7171;50.936;6.764;2022-10-16T15:00:13;0.50;;;0.50;;
14181;SDS011;7171;50.936;6.764;2022-10-16T15:02:44;0.40;;;0.40;;
14181;SDS011;7171;50.936;6.764;2022-10-16T15:05:13;0.60;;;0.60;;
14181;SDS011;7171;50.936;6.764;2022-10-16T15:07:42;0.80;;;0.80;;
14181;SDS011;7171;50.936;6.764;2022-10-16T15:10:10;0.73;;;0.73;;
14181;SDS011;7171;50.936;6.764;2022-10-16T15:12:37;0.60;;;0.60;;
14181;SDS011;7171;50.936;6.764;2022-10-16T15:18:00;0.50;;;0.50;;
14181;SDS011;7171;50.936;6.764;2022-10-16T15:20:28;0.75;;;0.50;;
14181;SDS011;7171;50.936;6.764;2022-10-16T15:22:56;0.50;;;0.50;;
14181;SDS011;7171;50.936;6.764;2022-10-16T15:25:27;0.68;;;0.63;;
14181;SDS011;7171;50.936;6.764;2022-10-16T15:27:57;0.50;;;0.50;;
14181;SDS011;7171;50.936;6.764;2022-10-16T15:30:24;1.35;;;0.63;;
14181;SDS011;7171;50.936;6.764;2022-10-16T15:32:51;0.40;;;0.40;;
14181;SDS011;7171;50.936;6.764;2022-10-16T15:35:20;0.50;;;0.50;;
14181;SDS011;7171;50.936;6.764;2022-10-16T15:37:47;0.47;;;0.47;;
14181;SDS011;7171;50.936;6.764;2022-10-16T15:40:14;0.50;;;0.50;;
14181;SDS011;7171;50.936;6.764;2022-10-16T15:42:42;0.68;;;0.68;;
14181;SDS011;7171;50.936;6.764;2022-10-16T15:45:09;0.85;;;0.65;;
14181;SDS011;7171;50.936;6.764;2022-10-16T15:47:37;0.40;;;0.40;;
14181;SDS011;7171;50.936;6.764;2022-10-16T15:50:04;0.60;;;0.60;;
14181;SDS011;7171;50.936;6.764;2022-10-16T15:52:32;0.50;;;0.50;;
14181;SDS011;7171;50.936;6.764;2022-10-16T15:54:59;0.50;;;0.50;;
14181;SDS011;7171;50.936;6.764;2022-10-16T15:57:27;0.70;;;0.70;;
14181;SDS011;7171;50.936;6.764;2022-10-16T15:59:54;1.52;;;0.73;;
14181;SDS011;7171;50.936;6.764;2022-10-16T16:02:20;0.68;;;0.68;;
14181;SDS011;7171;50.936;6.764;2022-10-16T16:04:47;0.60;;;0.50;;
14181;SDS011;7171;50.936;6.764;2022-10-16T16:07:14;0.85;;;0.85;;
14181;SDS011;7171;50.936;6.764;2022-10-16T16:09:42;1.30;;;1.00;;
14181;SDS011;7171;50.936;6.764;2022-10-16T16:12:10;1.00;;;0.90;;
14181;SDS011;7171;50.936;6.764;2022-10-16T16:14:36;0.70;;;0.70;;
14181;SDS011;7171;50.936;6.764;2022-10-16T16:17:03;2.05;;;0.95;;
14181;SDS011;7171;50.936;6.764;2022-10-16T16:19:30;1.52;;;0.80;;
14181;SDS011;7171;50.936;6.764;2022-10-16T16:21:56;0.80;;;0.75;;
14181;SDS011;7171;50.936;6.764;2022-10-16T16:24:23;1.00;;;0.75;;
14181;SDS011;7171;50.936;6.764;2022-10-16T16:26:51;0.50;;;0.50;;
14181;SDS011;7171;50.936;6.764;2022-10-16T16:29:18;0.50;;;0.50;;
14181;SDS011;7171;50.936;6.764;2022-10-16T16:31:45;0.40;;;0.40;;
14181;SDS011;7171;50.936;6.764;2022-10-16T16:34:12;1.17;;;0.80;;
14181;SDS011;7171;50.936;6.764;2022-10-16T16:36:38;0.47;;;0.47;;
14181;SDS011;7171;50.936;6.764;2022-10-16T16:39:05;0.50;;;0.50;;
14181;SDS011;7171;50.936;6.764;2022-10-16T16:41:33;0.95;;;0.70;;
14181;SDS011;7171;50.936;6.764;2022-10-16T16:44:05;0.75;;;0.60;;
14181;SDS011;7171;50.936;6.764;2022-10-16T16:46:33;0.43;;;0.43;;
14181;SDS011;7171;50.936;6.764;2022-10-16T16:49:00;1.85;;;0.80;;
14181;SDS011;7171;50.936;6.764;2022-10-16T16:51:27;1.25;;;0.90;;
14181;SDS011;7171;50.936;6.764;2022-10-16T16:53:54;1.90;;;1.00;;
14181;SDS011;7171;50.936;6.764;2022-10-16T16:56:22;0.70;;;0.70;;
14181;SDS011;7171;50.936;6.764;2022-10-16T16:58:50;0.40;;;0.40;;
14181;SDS011;7171;50.936;6.764;2022-10-16T17:01:21;0.60;;;0.60;;
14181;SDS011;7171;50.936;6.764;2022-10-16T17:03:50;0.57;;;0.57;;
14181;SDS011;7171;50.936;6.764;2022-10-16T17:06:18;0.60;;;0.60;;
14181;SDS011;7171;50.936;6.764;2022-10-16T17:08:46;0.63;;;0.63;;
14181;SDS011;7171;50.936;6.764;2022-10-16T17:11:15;0.50;;;0.50;;
14181;SDS011;7171;50.936;6.764;2022-10-16T17:13:42;0.57;;;0.57;;
14181;SDS011;7171;50.936;6.764;2022-10-16T17:16:10;0.50;;;0.50;;
14181;SDS011;7171;50.936;6.764;2022-10-16T17:18:38;0.60;;;0.60;;
14181;SDS011;7171;50.936;6.764;2022-10-16T17:21:06;0.80;;;0.80;;
14181;SDS011;7171;50.936;6.764;2022-10-16T17:23:35;0.65;;;0.65;;
14181;SDS011;7171;50.936;6.764;2022-10-16T17:26:04;0.63;;;0.63;;
14181;SDS011;7171;50.936;6.764;2022-10-16T17:28:32;0.68;;;0.57;;
14181;SDS011;7171;50.936;6.764;2022-10-16T17:31:06;0.60;;;0.60;;
14181;SDS011;7171;50.936;6.764;2022-10-16T17:33:37;1.05;;;0.90;;
14181;SDS011;7171;50.936;6.764;2022-10-16T17:36:05;0.40;;;0.40;;
14181;SDS011;7171;50.936;6.764;2022-10-16T17:38:32;0.90;;;0.90;;
14181;SDS011;7171;50.936;6.764;2022-10-16T17:41:08;1.00;;;0.90;;
14181;SDS011;7171;50.936;6.764;2022-10-16T17:43:36;0.60;;;0.60;;
14181;SDS011;7171;50.936;6.764;2022-10-16T17:46:03;0.43;;;0.43;;
14181;SDS011;7171;50.936;6.764;2022-10-16T17:48:30;0.60;;;0.60;;
14181;SDS011;7171;50.936;6.764;2022-10-16T17:50:58;0.80;;;0.57;;
14181;SDS011;7171;50.936;6.764;2022-10-16T17:53:25;1.10;;;0.73;;
14181;SDS011;7171;50.936;6.764;2022-10-16T17:55:51;0.68;;;0.68;;
14181;SDS011;7171;50.936;6.764;2022-10-16T17:58:23;0.65;;;0.60;;
14181;SDS011;7171;50.936;6.764;2022-10-16T18:00:49;0.70;;;0.70;;
14181;SDS011;7171;50.936;6.764;2022-10-16T18:03:16;0.60;;;0.60;;
14181;SDS011;7171;50.936;6.764;2022-10-16T18:05:43;0.75;;;0.75;;
14181;SDS011;7171;50.936;6.764;2022-10-16T18:08:11;0.70;;;0.60;;
14181;SDS011;7171;50.936;6.764;2022-10-16T18:10:43;0.70;;;0.70;;
14181;SDS011;7171;50.936;6.764;2022-10-16T18:13:11;0.80;;;0.73;;
14181;SDS011;7171;50.936;6.764;2022-10-16T18:15:37;0.70;;;0.70;;
14181;SDS011;7171;50.936;6.764;2022-10-16T18:18:04;0.80;;;0.80;;
14181;SDS011;7171;50.936;6.764;2022-10-16T18:20:31;0.68;;;0.65;;
14181;SDS011;7171;50.936;6.764;2022-10-16T18:22:58;1.10;;;0.98;;
14181;SDS011;7171;50.936;6.764;2022-10-16T18:25:26;1.20;;;0.63;;
14181;SDS011;7171;50.936;6.764;2022-10-16T18:27:52;0.95;;;0.75;;
14181;SDS011;7171;50.936;6.764;2022-10-16T18:30:19;1.27;;;1.08;;
14181;SDS011;7171;50.936;6.764;2022-10-16T18:32:46;1.00;;;0.90;;
14181;SDS011;7171;50.936;6.764;2022-10-16T18:35:13;3.15;;;0.90;;
14181;SDS011;7171;50.936;6.764;2022-10-16T18:37:40;0.70;;;0.70;;
14181;SDS011;7171;50.936;6.764;2022-10-16T18:40:06;1.08;;;0.80;;
14181;SDS011;7171;50.936;6.764;2022-10-16T18:42:35;0.90;;;0.90;;
14181;SDS011;7171;50.936;6.764;2022-10-16T18:45:01;0.70;;;0.70;;
14181;SDS011;7171;50.936;6.764;2022-10-16T18:47:28;0.80;;;0.80;;
14181;SDS011;7171;50.936;6.764;2022-10-16T18:49:55;0.82;;;0.80;;
14181;SDS011;7171;50.936;6.764;2022-10-16T18:52:22;2.55;;;0.90;;
14181;SDS011;7171;50.936;6.764;2022-10-16T18:54:53;1.00;;;0.90;;
14181;SDS011;7171;50.936;6.764;2022-10-16T18:57:21;1.13;;;1.00;;
14181;SDS011;7171;50.936;6.764;2022-10-16T18:59:49;1.00;;;0.80;;
14181;SDS011;7171;50.936;6.764;2022-10-16T19:02:15;1.23;;;0.95;;
14181;SDS011;7171;50.936;6.764;2022-10-16T19:04:42;0.80;;;0.80;;
14181;SDS011;7171;50.936;6.764;2022-10-16T19:07:09;0.98;;;0.80;;
14181;SDS011;7171;50.936;6.764;2022-10-16T19:09:35;1.33;;;0.90;;
14181;SDS011;7171;50.936;6.764;2022-10-16T19:12:03;1.65;;;1.40;;
14181;SDS011;7171;50.936;6.764;2022-10-16T19:14:31;1.70;;;1.00;;
14181;SDS011;7171;50.936;6.764;2022-10-16T19:17:00;2.00;;;1.20;;
14181;SDS011;7171;50.936;6.764;2022-10-16T19:19:26;1.10;;;1.00;;
14181;SDS011;7171;50.936;6.764;2022-10-16T19:21:53;1.45;;;0.90;;
14181;SDS011;7171;50.936;6.764;2022-10-16T19:24:35;1.10;;;1.00;;
14181;SDS011;7171;50.936;6.764;2022-10-16T19:27:02;1.20;;;1.10;;
14181;SDS011;7171;50.936;6.764;2022-10-16T19:29:29;0.85;;;0.82;;
14181;SDS011;7171;50.936;6.764;2022-10-16T19:31:56;1.35;;;1.10;;
14181;SDS011;7171;50.936;6.764;2022-10-16T19:34:27;1.42;;;0.90;;
14181;SDS011;7171;50.936;6.764;2022-10-16T19:36:55;0.80;;;0.80;;
14181;SDS011;7171;50.936;6.764;2022-10-16T19:39:21;1.40;;;1.05;;
14181;SDS011;7171;50.936;6.764;2022-10-16T19:41:49;0.77;;;0.77;;
14181;SDS011;7171;50.936;6.764;2022-10-16T19:44:16;1.35;;;1.08;;
14181;SDS011;7171;50.936;6.764;2022-10-16T19:46:43;1.17;;;1.00;;
14181;SDS011;7171;50.936;6.764;2022-10-16T19:49:11;1.13;;;1.02;;
14181;SDS011;7171;50.936;6.764;2022-10-16T19:51:40;1.67;;;1.10;;
14181;SDS011;7171;50.936;6.764;2022-10-16T19:54:07;1.23;;;1.13;;
14181;SDS011;7171;50.936;6.764;2022-10-16T19:56:36;0.80;;;0.80;;
14181;SDS011;7171;50.936;6.764;2022-10-16T19:59:04;1.13;;;0.90;;
14181;SDS011;7171;50.936;6.764;2022-10-16T20:01:32;1.10;;;0.80;;
14181;SDS011;7171;50.936;6.764;2022-10-16T20:03:59;1.75;;;1.23;;
14181;SDS011;7171;50.936;6.764;2022-10-16T20:06:26;1.33;;;1.10;;
14181;SDS011;7171;50.936;6.764;2022-10-16T20:08:54;0.80;;;0.80;;
14181;SDS011;7171;50.936;6.764;2022-10-16T20:11:22;1.10;;;1.00;;
14181;SDS011;7171;50.936;6.764;2022-10-16T20:13:51;1.15;;;1.08;;
14181;SDS011;7171;50.936;6.764;2022-10-16T20:16:17;1.48;;;1.15;;
14181;SDS011;7171;50.936;6.764;2022-10-16T20:18:45;1.05;;;0.95;;
14181;SDS011;7171;50.936;6.764;2022-10-16T20:21:13;3.17;;;1.10;;
14181;SDS011;7171;50.936;6.764;2022-10-16T20:23:41;1.58;;;1.15;;
14181;SDS011;7171;50.936;6.764;2022-10-16T20:26:10;4.28;;;1.20;;